Aérodrome :
LOGIN :

S'inscrire | Disclaimer

   EN    FR    IT 

 










Légende :    VFR   VFR Marginal   IFR   IFR Intensif   IFR Très Intensif
Visi : 
Plafond : 
>= 8 km
>= 3000ft
5 à 8 km
1000 à 3000 ft
1500m à 5 km
500 à 1000 ft
800 à 1500m
200 à 500 ft
< 800m
< 200 ft
Symboles :   Orages  Brouillard  Fortes neiges  Fortes précipitations  Vent > 20 kt
SIGMETs :   Divers  Orages  Givrage  Turbulence  Onde Orograph.  Cendres Volcan.






- Altitude de l'aérodrome : 359 ft
- Code IATA : BVA


LFOB - Beauvais

DERNIER METAR :
  • 211400Z AUTO 14008KT CAVOK 09/04 Q1002 NOSIG

METARs EXPIRÉS :
  • 211330Z AUTO 12008KT CAVOK 08/04 Q1003 NOSIG
  • 211300Z AUTO 13009KT CAVOK 08/04 Q1003 NOSIG
  • 211230Z AUTO 13010KT 9000 NSC 07/04 Q1003 NOSIG
  • 211200Z AUTO 14008KT 9000 NSC 07/04 Q1003 NOSIG
  • 211130Z AUTO 12008KT 9000 FEW007 06/03 Q1004 NOSIG

TAF TAF LFOB
Valide du 21 à 12h jusqu'au 22 à 12h UTC


211100Z 2112/2212 10006KT 7000 NSC
BECMG 2118/2120 16010KT OVC008
TEMPO 2121/2124 3000 RA OVC003
BECMG 2209/2211 NSC
ATIS : +33 3 44 11 49 28



MET'MAP, la Météo Aéronautique d'un coup d'oeil ! - Copyright ORBIFLY Décembre 2007 - Disclaimer

ORBIFLY MET'MAP TEAM :

Programmation & Développement : Alexandra Zaïnal
Conception & Développement : Baudouin d'Aumeries
Co-Programmation & Développement : Marc-Olivier Méhu
Soutien technique & logistique : Manuel Goepfert

Contact : metmap@orbifly.com




SOURCES & CREDITS :

   NOAA